Bridgehampton, New York
Current Conditions -  °F | °C
As of 11:53 PM on Wednesday 22 Oct 2014 (Local Time) from KFOK Reporting Station
Broken Clouds Broken Clouds  
Wind Chill: 55°   Ceiling: 8500
Heat Index: 55°   Visibility: 10mi
Dew Point: 50°   Wind: 24mph
Humidity: 83%   Direction: 30°NNE
Pressure: 29.66"   Gusts: 33mph
Location:  40.94°N, 72.3°W
Report Text: KFOK 230353Z AUTO 03021G29KT 10SM SCT070 BKN085 13/10 A2966 RMK AO2 PK WND 04031/0342 SLP041 T01280100 TSNO
Loading
Personal Weather Stations






























Interactive Weather Map
Tropical Storm Tracking
New forecast layout! Learn more

10-Day Weather Forecast

Advertisements
Track Severe Weather on mobile